Cupertino, California
Current Conditions -  °F | °C
As of 5:53 AM on Tuesday 27 Jan 2015 (Local Time) from KSJC Reporting Station
Overcast Overcast  
Wind Chill: 61°   Ceiling: 9000
Heat Index: 61°   Visibility: 10mi
Dew Point: 40°   Wind: 8mph
Humidity: 46%   Direction: 140°SE
Pressure: 30.1"   Gusts: NA
Location:  37.32°N, 122.02°W
Report Text: KSJC 271353Z 14007KT 10SM SCT065 OVC090 16/04 A3010 RMK AO2 RAB02E11 SLP193 P0000 T01610044
Loading
Personal Weather Stations






























Interactive Weather Map New forecast layout! Learn more

10-Day Weather Forecast

Advertisements
Track Severe Weather on mobile